Time;durP1;ratioP1;P1;durP2;ratioP2;P2;SDS_P1;SDS_P2;PMS_P1;PMS_P2;Temp;Humidity;BMP_temperature;BMP_pressure;BME280_temperature;BME280_humidity;BME280_pressure;Samples;Min_cycle;Max_cycle;Signal;HPM_P1;HPM_P2
2023/12/06 00:01:59;;;;;;;260.75;12.48;;;;;;;22.95;48.18;98791.78;7288361;19;129702;-41
2023/12/06 00:04:25;;;;;;;268.50;13.20;;;;;;;22.95;48.48;98791.78;7288442;19;131192;-40
2023/12/06 00:06:50;;;;;;;195.13;10.13;;;;;;;22.97;48.53;98794.22;7288048;19;130790;-46
2023/12/06 00:09:16;;;;;;;229.43;11.35;;;;;;;22.95;48.48;98798.81;7282566;19;129772;-46
2023/12/06 00:11:41;;;;;;;253.18;11.85;;;;;;;22.81;48.48;98775.88;7288094;19;130024;-40
2023/12/06 00:14:06;;;;;;;264.40;13.48;;;;;;;22.93;48.21;98793.75;7287025;19;129837;-38
2023/12/06 00:16:31;;;;;;;233.70;11.73;;;;;;;22.93;48.15;98792.91;7287463;19;130106;-41
2023/12/06 00:18:57;;;;;;;267.50;12.15;;;;;;;22.92;48.93;98797.31;7287178;19;129722;-39
2023/12/06 00:21:22;;;;;;;245.93;12.30;;;;;;;22.93;48.45;98798.16;7288660;19;131551;-42
2023/12/06 00:23:48;;;;;;;239.83;11.87;;;;;;;22.87;48.46;98791.75;7287690;19;131206;-40
2023/12/06 00:26:13;;;;;;;166.30;8.80;;;;;;;22.92;49.08;98796.53;7288333;19;129435;-41
2023/12/06 00:28:38;;;;;;;213.13;10.57;;;;;;;22.91;48.94;98795.69;7286622;19;130768;-37
2023/12/06 00:31:04;;;;;;;228.97;10.80;;;;;;;22.83;48.69;98787.84;7285988;19;129296;-44
2023/12/06 00:33:29;;;;;;;193.60;9.60;;;;;;;22.91;48.55;98800.94;7287945;19;130822;-40
2023/12/06 00:35:55;;;;;;;222.10;10.73;;;;;;;22.88;48.88;98809.16;7292603;19;129521;-41
2023/12/06 00:38:20;;;;;;;285.13;13.17;;;;;;;22.86;48.53;98807.66;7294431;19;130410;-42
2023/12/06 00:40:45;;;;;;;225.63;11.27;;;;;;;22.89;49.02;98815.22;7293373;19;129008;-38
2023/12/06 00:43:11;;;;;;;207.97;10.00;;;;;;;22.87;48.79;98798.81;7295277;19;129252;-42
2023/12/06 00:45:37;;;;;;;192.98;9.25;;;;;;;22.69;48.87;98785.91;7292928;19;130470;-46
2023/12/06 00:48:02;;;;;;;235.88;11.00;;;;;;;22.86;48.71;98812.91;7292761;19;130389;-43
2023/12/06 00:50:27;;;;;;;277.97;12.93;;;;;;;22.86;48.92;98828.63;7292245;19;129052;-40
2023/12/06 00:52:53;;;;;;;208.67;10.23;;;;;;;22.83;48.73;98808.81;7294871;19;130780;-39
2023/12/06 00:55:18;;;;;;;254.52;12.00;;;;;;;22.84;48.64;98801.78;7295026;19;131083;-38
2023/12/06 00:57:44;;;;;;;260.53;12.57;;;;;;;22.84;48.97;98807.81;7294507;19;131199;-45
2023/12/06 01:00:10;;;;;;;183.40;9.20;;;;;;;22.84;49.24;98814.91;7294736;19;129330;-39
2023/12/06 01:02:35;;;;;;;214.80;10.37;;;;;;;22.84;48.97;98810.44;7293601;19;129526;-42
2023/12/06 01:05:01;;;;;;;272.90;12.65;;;;;;;22.66;48.99;98785.44;7291674;19;130250;-42
2023/12/06 01:07:27;;;;;;;251.80;12.07;;;;;;;22.83;48.84;98814.06;7292797;19;131925;-40
2023/12/06 01:09:53;;;;;;;215.85;10.68;;;;;;;22.82;48.62;98811.63;7286885;19;130916;-39
2023/12/06 01:12:19;;;;;;;247.37;12.07;;;;;;;22.82;48.64;98801.13;7292408;19;129292;-39
2023/12/06 01:14:45;;;;;;;283.65;13.10;;;;;;;22.83;49.21;98808.00;7291452;19;130610;-44
2023/12/06 01:17:10;;;;;;;152.67;7.90;;;;;;;22.79;48.97;98806.72;7294141;19;130096;-41
2023/12/06 01:19:36;;;;;;;285.73;13.70;;;;;;;22.71;48.92;98809.34;7289886;19;130209;-39
2023/12/06 01:22:01;;;;;;;215.13;10.57;;;;;;;22.77;49.47;98798.19;7292333;19;131503;-40
2023/12/06 01:24:26;;;;;;;292.73;14.18;;;;;;;22.78;48.77;98810.28;7293029;19;130976;-46
2023/12/06 01:26:52;;;;;;;220.67;10.60;;;;;;;22.73;49.47;98797.69;7291919;19;130282;-45
2023/12/06 01:29:17;;;;;;;189.68;9.18;;;;;;;22.71;49.45;98804.91;7288531;19;129835;-43
2023/12/06 01:31:42;;;;;;;222.43;10.45;;;;;;;22.74;49.38;98809.00;7290967;19;129736;-40
2023/12/06 01:34:08;;;;;;;328.50;14.55;;;;;;;22.75;48.94;98794.91;7292882;19;130868;-38
2023/12/06 01:36:34;;;;;;;204.15;9.68;;;;;;;22.77;49.19;98803.44;7291822;19;130879;-41
2023/12/06 01:39:00;;;;;;;;;;;;;;;22.73;50.46;98796.88;7291462;19;129526;-42
2023/12/06 01:41:25;;;;;;;318.50;14.77;;;;;;;22.69;49.66;98791.13;7290659;19;130060;-40
2023/12/06 01:43:50;;;;;;;272.58;12.48;;;;;;;22.73;49.29;98789.84;7291144;19;130504;-41
2023/12/06 01:46:16;;;;;;;207.57;10.13;;;;;;;22.72;49.67;98790.00;7291552;19;129392;-41
2023/12/06 01:48:43;;;;;;;240.70;11.60;;;;;;;22.70;49.44;98791.97;7288886;19;129690;-41
2023/12/06 01:51:09;;;;;;;191.73;9.18;;;;;;;22.71;49.37;98786.56;7290750;19;130156;-37
2023/12/06 01:53:35;;;;;;;251.70;12.13;;;;;;;22.54;49.28;98763.19;7292561;19;129412;-41
2023/12/06 01:56:01;;;;;;;205.53;10.20;;;;;;;22.68;49.41;98788.69;7290998;19;130139;-44
2023/12/06 01:58:28;;;;;;;172.80;9.05;;;;;;;22.65;49.54;98778.53;7290772;19;129868;-37
2023/12/06 02:00:54;;;;;;;268.63;12.35;;;;;;;22.65;49.15;98783.78;7289733;19;129279;-42
2023/12/06 02:03:20;;;;;;;251.85;11.88;;;;;;;22.68;49.21;98786.06;7293296;19;131202;-43
2023/12/06 02:05:46;;;;;;;219.32;10.70;;;;;;;22.69;49.83;98785.09;7291112;19;129710;-39
2023/12/06 02:08:12;;;;;;;212.77;9.98;;;;;;;22.68;49.23;98778.22;7291130;19;130031;-41
2023/12/06 02:10:37;;;;;;;224.80;11.17;;;;;;;22.66;49.84;98786.25;7287707;19;129443;-44
2023/12/06 02:13:03;;;;;;;327.30;15.00;;;;;;;22.63;49.27;98780.50;7290758;19;129393;-45
2023/12/06 02:15:28;;;;;;;231.80;11.03;;;;;;;22.54;49.34;98768.41;7290381;19;130218;-40
2023/12/06 02:17:55;;;;;;;274.37;13.10;;;;;;;22.64;49.96;98792.66;7287975;19;129938;-38
2023/12/06 02:20:20;;;;;;;165.10;8.03;;;;;;;22.63;49.55;98791.00;7287948;19;129566;-46
2023/12/06 02:22:51;;;;;;;176.80;9.13;;;;;;;22.62;49.45;98790.19;7293094;19;133082;-41
2023/12/06 02:25:17;;;;;;;187.65;9.40;;;;;;;22.61;49.45;98788.53;7291060;19;129935;-45
2023/12/06 02:27:44;;;;;;;275.47;12.83;;;;;;;22.46;49.87;98763.97;7289491;19;129765;-39
2023/12/06 02:30:10;;;;;;;273.08;12.40;;;;;;;22.63;49.29;98791.00;7287856;19;129643;-44
2023/12/06 02:32:36;;;;;;;241.75;11.32;;;;;;;22.44;49.96;98765.13;7290260;19;132062;-37
2023/12/06 02:35:07;;;;;;;204.10;10.23;;;;;;;22.45;49.66;98767.56;7290708;19;130276;-40
2023/12/06 02:37:34;;;;;;;238.30;11.10;;;;;;;22.45;49.81;98767.56;7289676;19;129371;-43
2023/12/06 02:40:04;;;;;;;229.52;11.10;;;;;;;22.59;50.07;98787.09;7287450;19;129320;-40
2023/12/06 02:42:29;;;;;;;294.05;13.63;;;;;;;22.59;50.04;98787.09;7288978;19;130189;-42
2023/12/06 02:44:54;;;;;;;175.48;8.48;;;;;;;22.57;49.62;98778.56;7291823;19;130398;-39
2023/12/06 02:47:20;;;;;;;255.03;12.13;;;;;;;22.58;49.40;98788.03;7290037;19;129128;-36
2023/12/06 02:49:46;;;;;;;253.02;11.52;;;;;;;22.57;49.41;98774.16;7283127;19;130851;-44
2023/12/06 02:52:12;;;;;;;223.93;10.57;;;;;;;22.58;49.87;98785.44;7288235;19;130234;-44
2023/12/06 02:54:38;;;;;;;199.98;9.85;;;;;;;22.44;50.12;98757.25;7289464;19;130311;-40
2023/12/06 02:57:03;;;;;;;306.60;14.63;;;;;;;22.60;49.90;98778.22;7286543;19;131254;-39
2023/12/06 02:59:29;;;;;;;189.32;9.95;;;;;;;22.58;49.87;98782.81;7287726;19;129829;-42
2023/12/06 03:01:54;;;;;;;215.50;9.87;;;;;;;22.57;49.96;98786.41;7289660;19;129395;-44
2023/12/06 03:04:19;;;;;;;240.83;11.57;;;;;;;22.56;49.94;98779.56;7289646;19;130325;-40
2023/12/06 03:06:45;;;;;;;198.88;9.77;;;;;;;22.53;50.18;98785.09;7290338;19;130262;-41
2023/12/06 03:09:10;;;;;;;369.90;17.73;;;;;;;22.53;49.47;98779.88;7285202;19;130977;-39
2023/12/06 03:11:35;;;;;;;223.52;11.02;;;;;;;22.51;49.92;98771.34;7288221;19;130130;-43
2023/12/06 03:14:01;;;;;;;234.13;11.40;;;;;;;22.51;49.68;98776.59;7287852;19;130750;-44
2023/12/06 03:16:26;;;;;;;132.40;7.35;;;;;;;22.53;50.26;98769.38;7287992;19;129710;-44
2023/12/06 03:18:53;;;;;;;269.27;11.90;;;;;;;22.46;50.28;98758.72;7278882;19;130323;-40
2023/12/06 03:21:19;;;;;;;229.15;10.98;;;;;;;22.53;49.88;98774.63;7288917;19;131288;-43
2023/12/06 03:23:44;;;;;;;223.10;10.63;;;;;;;22.51;49.57;98766.09;7287696;19;130840;-43
2023/12/06 03:26:09;;;;;;;208.73;10.20;;;;;;;22.49;49.57;98775.91;7286694;19;130194;-41
2023/12/06 03:28:35;;;;;;;330.07;14.60;;;;;;;22.49;49.64;98768.91;7283918;19;130829;-40
2023/12/06 03:31:00;;;;;;;152.50;7.95;;;;;;;22.52;50.14;98770.34;7287232;19;130102;-38
2023/12/06 03:33:26;;;;;;;134.67;7.67;;;;;;;22.52;49.64;98775.59;7289338;19;130287;-41
2023/12/06 03:35:51;;;;;;;222.87;10.93;;;;;;;22.49;49.72;98768.91;7287248;19;130743;-42
2023/12/06 03:38:16;;;;;;;272.15;12.55;;;;;;;22.45;49.72;98771.97;7288697;19;130487;-40
2023/12/06 03:40:42;;;;;;;203.73;9.82;;;;;;;22.48;50.22;98767.25;7286993;19;130046;-39
2023/12/06 03:43:07;;;;;;;169.13;8.27;;;;;;;22.48;50.41;98777.72;7290555;19;129658;-39
2023/12/06 03:45:33;;;;;;;190.60;9.10;;;;;;;22.49;49.74;98778.53;7288898;19;130946;-44
2023/12/06 03:47:58;;;;;;;256.67;12.10;;;;;;;22.47;50.11;98775.25;7288080;19;129922;-41
2023/12/06 03:50:23;;;;;;;203.88;10.15;;;;;;;22.48;49.75;98779.50;7288336;19;132804;-42
2023/12/06 03:52:49;;;;;;;244.37;11.37;;;;;;;22.50;50.11;98780.16;7289450;19;130254;-41
2023/12/06 03:55:14;;;;;;;216.30;10.23;;;;;;;22.48;49.82;98777.72;7289211;19;129367;-40
2023/12/06 03:57:40;;;;;;;232.57;11.50;;;;;;;22.46;49.80;98778.88;7288554;19;129781;-43
2023/12/06 04:00:07;;;;;;;233.48;10.82;;;;;;;22.46;50.58;98774.44;7284633;19;129938;-42
2023/12/06 04:02:33;;;;;;;237.07;11.13;;;;;;;22.49;49.98;98773.31;7288704;19;133345;-41
2023/12/06 04:04:58;;;;;;;247.82;11.70;;;;;;;22.48;50.06;98769.03;7288574;19;129667;-43
2023/12/06 04:07:24;;;;;;;162.98;8.35;;;;;;;22.35;50.40;98761.69;7287861;19;129669;-44
2023/12/06 04:09:49;;;;;;;207.23;10.13;;;;;;;22.45;50.14;98772.81;7284461;19;132230;-38
2023/12/06 04:12:14;;;;;;;204.83;9.70;;;;;;;22.35;49.97;98750.38;7288585;19;130329;-40
2023/12/06 04:14:40;;;;;;;273.58;12.88;;;;;;;22.45;49.75;98766.75;7288466;19;130966;-41
2023/12/06 04:17:05;;;;;;;217.00;10.75;;;;;;;22.45;50.39;98771.97;7289103;19;129594;-44
2023/12/06 04:19:31;;;;;;;177.20;9.20;;;;;;;22.46;49.91;98752.69;7285869;19;130788;-42
2023/12/06 04:21:56;;;;;;;238.43;11.32;;;;;;;22.45;50.17;98762.34;7287136;19;132474;-41
2023/12/06 04:24:21;;;;;;;273.40;12.33;;;;;;;22.45;50.49;98758.88;7288656;19;130569;-42
2023/12/06 04:26:47;;;;;;;194.50;9.23;;;;;;;22.47;50.06;98754.31;7289478;19;130596;-40
2023/12/06 04:29:12;;;;;;;226.43;10.88;;;;;;;22.45;50.56;98766.75;7284658;19;130522;-42
2023/12/06 04:31:37;;;;;;;226.93;11.17;;;;;;;22.45;50.52;98762.34;7286730;19;131985;-45
2023/12/06 04:34:02;;;;;;;137.20;7.27;;;;;;;22.41;50.31;98761.00;7287703;19;129432;-44
2023/12/06 04:36:28;;;;;;;229.07;10.93;;;;;;;22.30;50.54;98739.59;7287719;19;129848;-41
2023/12/06 04:38:53;;;;;;;241.60;11.03;;;;;;;22.41;50.18;98765.47;7285216;19;130963;-39
2023/12/06 04:41:19;;;;;;;240.68;11.38;;;;;;;22.43;50.24;98769.53;7287532;19;130427;-38
2023/12/06 04:43:44;;;;;;;242.47;11.50;;;;;;;22.41;50.14;98775.94;7288231;19;131770;-40
2023/12/06 04:46:09;;;;;;;204.40;9.85;;;;;;;22.42;50.44;98778.38;7286583;19;129556;-42
2023/12/06 04:48:34;;;;;;;219.13;10.43;;;;;;;22.45;49.98;98782.47;7285356;19;129446;-41
2023/12/06 04:51:00;;;;;;;254.60;11.93;;;;;;;22.43;50.12;98784.44;7283360;19;130283;-40
2023/12/06 04:53:25;;;;;;;135.05;7.10;;;;;;;22.28;50.38;98760.69;7283986;19;129601;-41
2023/12/06 04:55:51;;;;;;;245.88;11.15;;;;;;;22.40;50.59;98790.00;7280408;19;132103;-41
2023/12/06 04:58:16;;;;;;;181.98;8.90;;;;;;;22.29;49.91;98769.38;7284900;19;132291;-40
2023/12/06 05:00:43;;;;;;;284.27;13.23;;;;;;;22.41;50.06;98794.25;7285699;19;131579;-42
2023/12/06 05:03:09;;;;;;;134.70;7.20;;;;;;;22.38;50.55;98786.75;7288719;19;129572;-41
2023/12/06 05:05:34;;;;;;;183.63;9.23;;;;;;;22.40;50.03;98790.00;7288409;19;130881;-43
2023/12/06 05:07:59;;;;;;;244.50;11.50;;;;;;;22.41;49.92;98787.22;7282540;19;132727;-41
2023/12/06 05:10:25;;;;;;;257.77;12.00;;;;;;;22.40;50.73;98787.38;7283479;19;130434;-41
2023/12/06 05:12:50;;;;;;;169.77;8.82;;;;;;;22.36;50.18;98788.69;7288024;19;129937;-37
2023/12/06 05:15:16;;;;;;;207.95;9.95;;;;;;;22.33;50.69;98778.56;7286578;19;130394;-38
2023/12/06 05:17:41;;;;;;;287.90;13.50;;;;;;;22.39;50.45;98789.19;7285727;19;130383;-40
2023/12/06 05:20:07;;;;;;;202.37;9.90;;;;;;;22.24;49.96;98763.81;7287582;19;130869;-43
2023/12/06 05:22:33;;;;;;;244.53;11.43;;;;;;;22.38;50.21;98790.16;7294523;19;131650;-40
2023/12/06 05:24:59;;;;;;;186.25;9.43;;;;;;;22.37;50.57;98790.31;7294420;19;132109;-39
2023/12/06 05:27:24;;;;;;;258.63;11.77;;;;;;;22.22;50.78;98774.44;7290763;19;130106;-44
2023/12/06 05:29:50;;;;;;;247.57;12.27;;;;;;;22.35;50.58;98797.53;7285058;19;131076;-44
2023/12/06 05:32:15;;;;;;;259.93;12.40;;;;;;;22.39;50.79;98796.22;7289214;19;130106;-39
2023/12/06 05:34:41;;;;;;;253.55;12.20;;;;;;;22.38;50.74;98798.00;7290745;19;129987;-40
2023/12/06 05:37:07;;;;;;;206.68;9.90;;;;;;;22.33;50.44;98802.13;7290460;19;130336;-42
2023/12/06 05:39:33;;;;;;;225.43;10.90;;;;;;;22.18;50.90;98778.38;7291486;19;130454;-40
2023/12/06 05:41:58;;;;;;;246.07;11.43;;;;;;;22.33;50.20;98792.44;7288798;19;130299;-43
2023/12/06 05:44:24;;;;;;;230.43;10.65;;;;;;;22.34;50.70;98801.13;7290885;19;129638;-39
2023/12/06 05:46:49;;;;;;;282.43;12.83;;;;;;;22.33;50.42;98799.50;7289015;19;131145;-41
2023/12/06 05:49:16;;;;;;;239.70;11.38;;;;;;;22.32;50.26;98792.63;7286598;19;131441;-43
2023/12/06 05:51:41;;;;;;;;;;;;;;;22.28;51.56;98799.19;7291737;19;130069;-38
2023/12/06 05:54:06;;;;;;;242.80;10.95;;;;;;;22.29;50.83;98792.94;7290533;19;129437;-41
2023/12/06 05:56:32;;;;;;;263.05;12.13;;;;;;;22.29;50.61;98798.19;7289905;19;129378;-43
2023/12/06 05:58:57;;;;;;;198.70;9.55;;;;;;;22.31;50.56;98796.22;7291250;19;132131;-39
2023/12/06 06:01:23;;;;;;;198.63;9.80;;;;;;;22.33;50.85;98802.13;7290256;19;131372;-41
2023/12/06 06:03:48;;;;;;;258.90;12.38;;;;;;;22.26;50.89;98795.91;7288137;19;129524;-37
2023/12/06 06:06:13;;;;;;;201.03;9.23;;;;;;;22.28;50.32;98802.59;7291949;19;130185;-39
2023/12/06 06:08:39;;;;;;;174.80;8.70;;;;;;;22.27;50.73;98787.03;7289789;19;129637;-42
2023/12/06 06:11:04;;;;;;;188.57;9.10;;;;;;;22.30;50.75;98799.81;7286113;19;130056;-42
2023/12/06 06:13:30;;;;;;;272.20;12.43;;;;;;;22.26;50.58;98794.09;7292251;19;130764;-39
2023/12/06 06:15:56;;;;;;;260.83;11.90;;;;;;;22.26;51.29;98798.50;7291518;19;131270;-40
2023/12/06 06:18:22;;;;;;;177.27;8.67;;;;;;;22.29;50.81;98792.94;7289647;19;131919;-40
2023/12/06 06:20:48;;;;;;;305.08;13.70;;;;;;;22.28;50.56;98793.94;7287121;19;129104;-42
2023/12/06 06:23:13;;;;;;;260.92;11.48;;;;;;;22.26;50.66;98795.91;7290133;19;130183;-43
2023/12/06 06:25:38;;;;;;;234.75;10.93;;;;;;;22.25;50.75;98796.88;7292565;19;131456;-41
2023/12/06 06:28:04;;;;;;;237.60;10.63;;;;;;;22.24;51.19;98796.06;7290177;19;133382;-45
2023/12/06 06:30:30;;;;;;;161.43;8.30;;;;;;;22.24;50.54;98797.84;7290138;19;131768;-43
2023/12/06 06:32:56;;;;;;;313.30;14.17;;;;;;;22.25;50.44;98797.69;7288621;19;129037;-40
2023/12/06 06:35:22;;;;;;;264.88;12.02;;;;;;;22.24;51.15;98801.31;7292266;19;130500;-39
2023/12/06 06:37:47;;;;;;;281.13;13.18;;;;;;;22.23;51.02;98801.47;7287774;19;130403;-44
2023/12/06 06:40:14;;;;;;;151.45;7.32;;;;;;;22.22;50.52;98805.03;7289570;19;130889;-39
2023/12/06 06:42:40;;;;;;;312.30;13.90;;;;;;;22.22;51.32;98813.72;7290776;19;129540;-40
2023/12/06 06:45:08;;;;;;;176.40;8.23;;;;;;;22.24;51.26;98816.19;7287971;19;130467;-43
2023/12/06 06:47:34;;;;;;;164.95;7.75;;;;;;;22.22;50.60;98808.50;7290963;19;130394;-38
2023/12/06 06:49:59;;;;;;;317.63;15.00;;;;;;;22.22;51.24;98810.28;7284972;19;129553;-40
2023/12/06 06:52:24;;;;;;;252.83;11.43;;;;;;;22.11;50.63;98793.13;7290501;19;129643;-42
2023/12/06 06:54:50;;;;;;;246.20;11.40;;;;;;;22.20;51.22;98815.69;7290438;19;131512;-43
2023/12/06 06:57:15;;;;;;;178.90;8.73;;;;;;;22.22;50.67;98818.13;7291019;19;130965;-38
2023/12/06 06:59:40;;;;;;;283.73;12.80;;;;;;;22.18;51.17;98817.63;7286827;19;130522;-39
2023/12/06 07:02:06;;;;;;;192.43;9.30;;;;;;;22.17;50.98;98821.25;7291746;19;129640;-41
2023/12/06 07:04:31;;;;;;;151.75;8.05;;;;;;;22.19;50.89;98829.75;7286523;19;130256;-43
2023/12/06 07:06:57;;;;;;;249.57;11.27;;;;;;;22.19;51.15;98826.31;7288460;19;130327;-43
2023/12/06 07:09:23;;;;;;;253.68;11.65;;;;;;;22.19;50.67;98832.38;7288700;19;130828;-40
2023/12/06 07:11:48;;;;;;;272.73;12.57;;;;;;;22.06;51.29;98810.28;7287852;19;132983;-43
2023/12/06 07:14:14;;;;;;;200.07;9.52;;;;;;;22.15;51.32;98828.44;7290795;19;130337;-44
2023/12/06 07:16:39;;;;;;;113.13;6.77;;;;;;;22.04;51.24;98809.59;7288207;19;129855;-44
2023/12/06 07:19:04;;;;;;;299.98;13.85;;;;;;;22.13;50.90;98825.16;7287015;19;130357;-41
2023/12/06 07:21:30;;;;;;;201.68;9.45;;;;;;;22.13;50.94;98845.31;7290053;19;129050;-39
2023/12/06 07:23:55;;;;;;;371.40;15.97;;;;;;;22.16;51.56;98834.50;7285261;19;129565;-40
2023/12/06 07:26:20;;;;;;;222.80;10.30;;;;;;;22.15;51.22;98838.91;7283788;19;130559;-38
2023/12/06 07:28:45;;;;;;;286.45;12.88;;;;;;;22.13;50.85;98834.84;7286294;19;130173;-42
2023/12/06 07:31:11;;;;;;;215.85;10.23;;;;;;;22.14;51.56;98846.94;7288217;19;130043;-44
2023/12/06 07:33:39;;;;;;;271.50;12.33;;;;;;;22.14;50.89;98844.31;7286669;19;130208;-41
2023/12/06 07:36:05;;;;;;;338.25;14.88;;;;;;;22.13;51.57;98847.91;7284306;19;131090;-43
2023/12/06 07:38:30;;;;;;;277.00;11.98;;;;;;;22.14;51.54;98852.16;7289700;19;131957;-38
2023/12/06 07:40:56;;;;;;;309.45;13.95;;;;;;;21.98;51.10;98822.34;7286111;19;130609;-40
2023/12/06 07:43:22;;;;;;;227.63;10.33;;;;;;;22.13;50.79;98847.91;7281999;19;130103;-40
2023/12/06 07:45:48;;;;;;;170.23;11.02;;;;;;;22.08;48.72;98848.38;7279752;19;130440;-43
2023/12/06 07:48:13;;;;;;;277.92;16.98;;;;;;;22.03;46.28;98853.31;7286247;19;129385;-41
2023/12/06 07:50:38;;;;;;;218.97;14.00;;;;;;;22.01;46.91;98859.66;7289419;19;130333;-39
2023/12/06 07:53:04;;;;;;;281.20;16.38;;;;;;;22.01;46.96;98857.88;7285640;19;130980;-40
2023/12/06 07:55:29;;;;;;;196.63;13.17;;;;;;;22.01;48.09;98857.06;7289427;19;134513;-40
2023/12/06 07:57:54;;;;;;;293.63;17.53;;;;;;;22.05;47.74;98858.38;7288484;19;130212;-42
2023/12/06 08:00:20;;;;;;;178.53;11.40;;;;;;;21.85;48.96;98835.09;7286549;19;129168;-43
2023/12/06 08:02:45;;;;;;;178.17;11.37;;;;;;;22.00;48.89;98865.91;7290361;19;130113;-41
2023/12/06 08:05:11;;;;;;;200.60;12.05;;;;;;;21.98;49.69;98864.25;7292078;19;130883;-39
2023/12/06 08:07:38;;;;;;;248.40;13.77;;;;;;;22.01;49.85;98867.53;7291002;19;129909;-43
2023/12/06 08:10:12;;;;;;;189.77;11.88;;;;;;;22.00;49.40;98871.13;7288916;19;131072;-39
2023/12/06 08:12:38;;;;;;;153.95;10.15;;;;;;;22.00;50.31;98876.38;7290715;19;132254;-39
2023/12/06 08:15:04;;;;;;;195.13;11.30;;;;;;;21.81;50.44;98852.09;7291088;19;130482;-39
2023/12/06 08:17:30;;;;;;;261.20;13.55;;;;;;;21.96;50.35;98870.63;7292321;19;129018;-37
2023/12/06 08:19:55;;;;;;;280.73;15.05;;;;;;;21.94;50.39;98873.41;7282242;19;131987;-39
2023/12/06 08:22:20;;;;;;;149.97;10.00;;;;;;;21.88;50.46;98874.03;7288414;19;130382;-45
2023/12/06 08:24:46;;;;;;;198.13;11.23;;;;;;;21.80;50.71;98849.63;7286568;19;129552;-41
2023/12/06 08:27:12;;;;;;;185.13;10.50;;;;;;;21.89;50.86;98869.63;7286492;19;131203;-39
2023/12/06 08:29:38;;;;;;;216.07;11.93;;;;;;;21.91;51.07;98881.53;7285747;19;129542;-39
2023/12/06 08:32:04;;;;;;;197.98;11.63;;;;;;;21.90;50.47;98879.91;7288537;19;130894;-41
2023/12/06 08:34:29;;;;;;;228.37;12.50;;;;;;;21.87;51.19;98882.84;7288808;19;130393;-38
2023/12/06 08:36:55;;;;;;;172.60;10.60;;;;;;;21.88;50.71;98887.09;7289149;19;129826;-37
2023/12/06 08:39:20;;;;;;;289.50;15.02;;;;;;;21.88;50.93;98889.72;7287778;19;129755;-38
2023/12/06 08:41:46;;;;;;;230.80;12.18;;;;;;;21.88;51.36;98889.72;7290090;19;130369;-39
2023/12/06 08:44:11;;;;;;;189.83;10.80;;;;;;;21.86;51.42;98891.69;7287182;19;131128;-39
2023/12/06 08:46:37;;;;;;;368.80;18.93;;;;;;;21.86;50.81;98896.09;7281072;19;130049;-38
2023/12/06 08:49:03;;;;;;;245.37;13.80;;;;;;;21.83;51.28;98886.75;7284136;19;130989;-39
2023/12/06 08:51:28;;;;;;;241.93;13.50;;;;;;;21.88;51.35;98894.94;7283429;19;130299;-39
2023/12/06 08:53:53;;;;;;;209.65;13.65;;;;;;;21.90;47.86;98890.38;7284975;19;131422;-39
2023/12/06 08:56:19;;;;;;;256.83;17.03;;;;;;;21.88;46.28;98894.94;7294458;19;130900;-39
2023/12/06 08:58:44;;;;;;;278.00;16.67;;;;;;;21.87;46.43;98897.72;7295610;19;130765;-39
2023/12/06 09:01:09;;;;;;;207.60;13.73;;;;;;;21.79;46.24;98879.38;7292796;19;129712;-39
2023/12/06 09:03:35;;;;;;;201.40;15.07;;;;;;;21.83;46.84;98897.22;7292769;19;130845;-39
2023/12/06 09:06:00;;;;;;;255.63;18.02;;;;;;;21.89;45.70;98907.09;7295478;19;129927;-37
2023/12/06 09:08:26;;;;;;;226.80;17.50;;;;;;;21.88;44.92;98902.81;7294433;19;129440;-39
2023/12/06 09:10:52;;;;;;;198.97;16.77;;;;;;;21.85;44.51;98905.75;7291966;19;130139;-39
2023/12/06 09:13:18;;;;;;;228.27;17.30;;;;;;;21.84;45.00;98906.72;7288836;19;132993;-39
2023/12/06 09:15:43;;;;;;;228.97;17.77;;;;;;;21.81;43.99;98907.06;7294437;19;132092;-39
2023/12/06 09:18:09;;;;;;;232.50;18.77;;;;;;;21.65;44.37;98877.34;7293718;19;130526;-38
2023/12/06 09:20:35;;;;;;;228.27;17.07;;;;;;;21.66;42.51;98885.03;7288650;19;130866;-39
2023/12/06 09:23:00;;;;;;;226.35;16.80;;;;;;;21.81;41.97;98914.91;7295125;19;130195;-39
2023/12/06 09:25:26;;;;;;;201.83;15.73;;;;;;;21.82;43.00;98911.28;7293572;19;131742;-38
2023/12/06 09:27:51;;;;;;;262.08;17.80;;;;;;;21.77;43.81;98918.78;7291606;19;129968;-37
2023/12/06 09:30:16;;;;;;;269.05;18.50;;;;;;;21.77;44.44;98913.56;7294197;19;130232;-39
2023/12/06 09:32:42;;;;;;;317.63;20.63;;;;;;;21.78;43.94;98912.56;7291227;19;130665;-37
2023/12/06 09:35:08;;;;;;;273.40;18.73;;;;;;;21.75;43.82;98909.44;7292389;19;130372;-39
2023/12/06 09:37:34;;;;;;;238.30;17.52;;;;;;;21.73;44.71;98912.19;7296613;19;130883;-39
2023/12/06 09:39:59;;;;;;;241.90;17.25;;;;;;;21.73;43.54;98912.19;7289855;19;130616;-37
2023/12/06 09:42:27;;;;;;;178.63;15.60;;;;;;;21.72;44.62;98912.34;7292275;19;132312;-39
2023/12/06 09:44:55;;;;;;;212.18;16.27;;;;;;;21.72;43.83;98915.81;7294307;19;129704;-40
2023/12/06 09:47:23;;;;;;;302.83;19.05;;;;;;;21.74;42.87;98915.63;7287769;19;130987;-37
2023/12/06 09:49:48;;;;;;;177.75;13.75;;;;;;;21.79;42.24;98914.22;7294364;19;131104;-39
2023/12/06 09:52:23;;;;;;;249.95;17.65;;;;;;;21.70;43.70;98920.34;7295635;19;131214;-38
2023/12/06 09:54:50;;;;;;;190.00;14.30;;;;;;;21.71;42.88;98919.41;7296034;19;130101;-39
2023/12/06 09:57:16;;;;;;;;;;;;;;;21.59;45.18;98898.88;7293451;19;129061;-38
2023/12/06 09:59:41;;;;;;;301.55;18.85;;;;;;;21.72;44.07;98923.66;7295506;19;133017;-40
2023/12/06 10:02:07;;;;;;;235.10;15.55;;;;;;;21.57;44.82;98904.28;7294872;19;130001;-37
2023/12/06 10:04:34;;;;;;;130.32;12.27;;;;;;;21.70;44.85;98922.19;7295431;19;129769;-37
2023/12/06 10:07:00;;;;;;;237.93;16.35;;;;;;;21.70;43.92;98927.41;7294017;19;130575;-40
2023/12/06 10:09:25;;;;;;;353.87;21.43;;;;;;;21.70;43.00;98917.75;7288498;19;132450;-37
2023/12/06 10:11:50;;;;;;;222.40;15.98;;;;;;;21.69;42.07;98918.72;7291527;19;130596;-39
2023/12/06 10:14:20;;;;;;;243.73;17.08;;;;;;;21.72;42.97;98915.81;7290864;19;130027;-39
2023/12/06 10:16:46;;;;;;;253.13;16.08;;;;;;;21.71;42.58;98914.16;7291553;19;130382;-39
2023/12/06 10:19:19;;;;;;;250.32;15.95;;;;;;;21.55;43.88;98895.75;7289317;19;131069;-38
2023/12/06 10:21:46;;;;;;;185.63;13.27;;;;;;;21.66;43.58;98920.84;7294413;19;130704;-39
2023/12/06 10:24:12;;;;;;;264.27;16.20;;;;;;;21.68;43.50;98924.13;7294033;19;130061;-39
2023/12/06 10:26:37;;;;;;;266.52;16.73;;;;;;;21.72;43.86;98922.81;7294380;19;129263;-39
2023/12/06 10:29:04;;;;;;;142.23;11.25;;;;;;;21.74;44.22;98913.03;7294541;19;132196;-38
2023/12/06 10:31:45;;;;;;;200.10;13.43;;;;;;;21.74;44.82;98920.88;7294053;19;130840;-39
2023/12/06 10:34:10;;;;;;;215.35;14.98;;;;;;;21.60;43.55;98890.88;7294779;19;130809;-40
2023/12/06 10:36:37;;;;;;;210.02;15.02;;;;;;;21.76;42.95;98911.94;7292789;19;130157;-38
2023/12/06 10:39:06;;;;;;;263.35;16.15;;;;;;;21.77;43.69;98907.50;7292806;19;130369;-39
2023/12/06 10:41:32;;;;;;;59.63;8.18;;;;;;;21.74;42.93;98916.47;7301115;19;129538;-38
2023/12/06 10:43:59;;;;;;;;;;;;;;;21.71;45.56;98915.97;7313958;19;129590;-38
2023/12/06 10:46:26;;;;;;;238.98;15.30;;;;;;;21.71;43.92;98903.72;7308110;19;129436;-38
2023/12/06 10:48:53;;;;;;;119.00;9.05;;;;;;;21.77;44.11;98904.88;7309893;19;130388;-38
2023/12/06 10:51:19;;;;;;;124.38;9.68;;;;;;;21.81;44.95;98912.28;7312246;19;130449;-39
2023/12/06 10:53:46;;;;;;;89.97;8.57;;;;;;;21.80;45.45;98905.41;7310170;19;128607;-39
2023/12/06 10:56:14;;;;;;;87.88;8.63;;;;;;;21.83;46.21;98912.13;7311768;19;129275;-39
2023/12/06 10:58:40;;;;;;;112.80;9.07;;;;;;;21.87;46.41;98909.03;7309547;19;130170;-38